createdAt,value
2022-12-01T00:01:13.169Z,4.43
2022-12-01T00:03:41.223Z,4.24
2022-12-01T00:06:15.912Z,4.05
2022-12-01T00:09:02.414Z,3.86
2022-12-01T00:11:29.818Z,4.44
2022-12-01T00:13:56.840Z,5.00
2022-12-01T00:16:23.974Z,5.07
2022-12-01T00:18:51.924Z,4.91
2022-12-01T00:21:20.839Z,4.70
2022-12-01T00:23:49.399Z,4.48
2022-12-01T00:26:16.861Z,4.25
2022-12-01T00:28:43.946Z,4.05
2022-12-01T00:31:12.068Z,3.83
2022-12-01T00:33:39.367Z,4.28
2022-12-01T00:36:06.845Z,4.83
2022-12-01T00:38:34.786Z,4.93
2022-12-01T00:41:02.185Z,4.79
2022-12-01T00:43:29.453Z,4.58
2022-12-01T00:45:56.813Z,4.34
2022-12-01T00:48:23.951Z,4.15
2022-12-01T00:50:52.020Z,3.96
2022-12-01T00:53:19.013Z,3.80
2022-12-01T00:55:45.950Z,4.31
2022-12-01T00:58:13.109Z,4.95
2022-12-01T01:00:40.069Z,4.94
2022-12-01T01:03:07.399Z,4.72
2022-12-01T01:05:38.479Z,4.43
2022-12-01T01:08:12.613Z,4.17
2022-12-01T01:10:40.477Z,3.98
2022-12-01T01:13:07.618Z,3.78
2022-12-01T01:15:34.741Z,4.13
2022-12-01T01:18:01.991Z,4.61
2022-12-01T01:20:29.393Z,4.68
2022-12-01T01:22:56.809Z,4.53
2022-12-01T01:25:24.225Z,4.27
2022-12-01T01:27:51.687Z,3.94
2022-12-01T01:30:19.983Z,3.63
2022-12-01T01:32:47.094Z,3.42
2022-12-01T01:35:14.212Z,3.89
2022-12-01T01:37:41.679Z,4.54
2022-12-01T01:40:09.208Z,4.64
2022-12-01T01:42:36.328Z,4.35
2022-12-01T01:45:03.590Z,4.17
2022-12-01T01:47:37.349Z,3.95
2022-12-01T01:50:09.990Z,3.72
2022-12-01T01:52:40.429Z,3.52
2022-12-01T01:55:08.091Z,4.05
2022-12-01T01:57:35.434Z,4.69
2022-12-01T02:00:13.348Z,4.66
2022-12-01T02:02:44.448Z,4.31
2022-12-01T02:05:32.360Z,4.06
2022-12-01T02:07:59.797Z,3.71
2022-12-01T02:10:36.091Z,3.43
2022-12-01T02:13:14.777Z,3.22
2022-12-01T02:16:04.867Z,3.77
2022-12-01T02:18:52.496Z,4.31
2022-12-01T02:21:25.432Z,4.29
2022-12-01T02:23:55.635Z,4.12
2022-12-01T02:26:39.980Z,3.93
2022-12-01T02:29:44.264Z,3.73
2022-12-01T02:32:17.392Z,3.45
2022-12-01T02:34:55.169Z,3.24
2022-12-01T02:37:41.180Z,3.80
2022-12-01T02:40:24.113Z,4.42
2022-12-01T02:43:02.270Z,4.36
2022-12-01T02:45:51.846Z,4.09
2022-12-01T02:48:30.076Z,3.76
2022-12-01T02:50:58.785Z,3.41
2022-12-01T02:53:26.020Z,3.18
2022-12-01T02:55:54.403Z,3.56
2022-12-01T02:58:21.995Z,4.09
2022-12-01T03:01:34.446Z,4.22
2022-12-01T03:04:38.904Z,4.08
2022-12-01T03:07:15.538Z,3.86
2022-12-01T03:10:03.843Z,3.67
2022-12-01T03:12:50.789Z,3.49
2022-12-01T03:15:55.658Z,3.28
2022-12-01T03:18:40.169Z,4.10
2022-12-01T03:21:23.988Z,4.52
2022-12-01T03:23:53.356Z,4.40
2022-12-01T03:26:22.105Z,4.09
2022-12-01T03:28:52.435Z,3.73
2022-12-01T03:31:21.244Z,3.45
2022-12-01T03:34:42.734Z,3.20
2022-12-01T03:37:14.812Z,3.01
2022-12-01T03:39:41.754Z,3.66
2022-12-01T03:42:15.904Z,4.17
2022-12-01T03:44:51.037Z,4.10
2022-12-01T03:47:20.960Z,3.74
2022-12-01T03:49:49.573Z,3.39
2022-12-01T03:52:35.343Z,3.24
2022-12-01T03:55:12.121Z,2.99
2022-12-01T03:58:12.107Z,2.84
2022-12-01T04:00:39.344Z,3.54
2022-12-01T04:03:06.383Z,4.01
2022-12-01T04:05:34.033Z,3.87
2022-12-01T04:08:01.568Z,3.63
2022-12-01T04:10:28.782Z,3.39
2022-12-01T04:12:59.519Z,3.20
2022-12-01T04:15:27.004Z,2.97
2022-12-01T04:17:54.013Z,2.78
2022-12-01T04:20:21.192Z,3.27
2022-12-01T04:22:48.461Z,3.90
2022-12-01T04:25:15.495Z,4.01
2022-12-01T04:27:42.693Z,3.77
2022-12-01T04:30:10.634Z,3.50
2022-12-01T04:32:41.984Z,3.25
2022-12-01T04:35:09.614Z,2.99
2022-12-01T04:37:37.326Z,2.76
2022-12-01T04:40:05.878Z,3.21
2022-12-01T04:42:33.289Z,3.84
2022-12-01T04:45:00.402Z,3.96
2022-12-01T04:47:27.329Z,3.46
2022-12-01T04:49:54.735Z,3.15
2022-12-01T04:52:21.768Z,3.07
2022-12-01T04:54:49.109Z,2.86
2022-12-01T04:57:16.313Z,2.68
2022-12-01T04:59:43.356Z,3.20
2022-12-01T05:02:10.556Z,3.85
2022-12-01T05:04:41.419Z,3.94
2022-12-01T05:07:08.679Z,3.72
2022-12-01T05:09:36.091Z,3.30
2022-12-01T05:12:03.540Z,2.89
2022-12-01T05:14:30.794Z,2.57
2022-12-01T05:17:00.092Z,2.77
2022-12-01T05:19:59.582Z,3.38
2022-12-01T05:22:56.793Z,3.43
2022-12-01T05:25:13.534Z,3.12
2022-12-01T05:27:40.580Z,2.86
2022-12-01T05:30:08.102Z,2.69
2022-12-01T05:32:35.259Z,2.55
2022-12-01T05:35:02.328Z,2.88
2022-12-01T05:37:33.424Z,3.59
2022-12-01T05:40:01.444Z,3.75
2022-12-01T05:42:28.444Z,3.40
2022-12-01T05:44:55.383Z,3.11
2022-12-01T07:04:30.013Z,-0.15
2022-12-01T07:06:57.049Z,1.01
2022-12-01T07:09:23.967Z,1.77
2022-12-01T07:11:51.086Z,2.22
2022-12-01T07:14:22.507Z,2.43
2022-12-01T07:16:49.626Z,2.38
2022-12-01T07:19:16.719Z,2.15
2022-12-01T07:21:44.476Z,2.54
2022-12-01T07:24:12.714Z,3.01
2022-12-01T07:26:41.269Z,3.08
2022-12-01T07:29:09.337Z,3.05
2022-12-01T07:31:37.267Z,2.60
2022-12-01T07:34:04.471Z,2.07
2022-12-01T07:36:31.740Z,2.17
2022-12-01T07:38:58.874Z,2.51
2022-12-01T07:41:26.115Z,2.72
2022-12-01T07:43:53.132Z,2.56
2022-12-01T07:46:23.754Z,2.28
2022-12-01T07:48:52.245Z,2.13
2022-12-01T07:51:19.444Z,2.56
2022-12-01T07:53:47.812Z,2.96
2022-12-01T07:56:14.960Z,2.67
2022-12-01T07:58:42.291Z,2.46
2022-12-01T08:01:12.033Z,1.94
2022-12-01T08:03:39.549Z,1.89
2022-12-01T08:06:06.832Z,1.72
2022-12-01T08:08:34.838Z,2.35
2022-12-01T08:11:03.247Z,2.59
2022-12-01T08:13:30.672Z,2.45
2022-12-01T08:15:57.743Z,2.28
2022-12-01T08:18:25.143Z,2.26
2022-12-01T08:20:52.187Z,2.21
2022-12-01T08:23:19.292Z,2.17
2022-12-01T08:25:46.322Z,2.59
2022-12-01T08:28:14.092Z,2.75
2022-12-01T08:30:41.185Z,2.97
2022-12-01T08:33:08.385Z,3.03
2022-12-01T08:35:36.315Z,2.95
2022-12-01T08:38:03.689Z,2.78
2022-12-01T08:40:30.813Z,2.67
2022-12-01T08:42:57.916Z,2.42
2022-12-01T08:45:25.244Z,2.83
2022-12-01T08:47:53.596Z,3.43
2022-12-01T08:50:20.561Z,3.46
2022-12-01T08:52:47.639Z,3.20
2022-12-01T08:55:14.632Z,2.90
2022-12-01T08:57:42.657Z,2.68
2022-12-01T09:00:10.980Z,2.45
2022-12-01T09:02:38.184Z,2.19
2022-12-01T09:05:05.703Z,2.54
2022-12-01T09:07:32.986Z,3.09
2022-12-01T09:09:59.983Z,3.02
2022-12-01T09:12:29.006Z,3.01
2022-12-01T09:14:56.692Z,2.47
2022-12-01T09:17:24.015Z,2.25
2022-12-01T09:19:51.675Z,1.97
2022-12-01T09:22:18.844Z,1.75
2022-12-01T09:24:45.781Z,2.41
2022-12-01T09:27:13.273Z,3.21
2022-12-01T09:29:40.454Z,3.44
2022-12-01T09:32:07.421Z,3.27
2022-12-01T09:34:35.066Z,2.99
2022-12-01T09:37:02.113Z,2.83
2022-12-01T09:39:29.910Z,2.62
2022-12-01T09:42:08.797Z,2.36
2022-12-01T09:44:47.665Z,2.23
2022-12-01T09:47:22.423Z,2.85
2022-12-01T09:50:06.573Z,3.51
2022-12-01T09:52:40.990Z,3.73
2022-12-01T09:55:15.764Z,3.49
2022-12-01T09:57:43.034Z,3.32
2022-12-01T10:00:15.952Z,3.18
2022-12-01T10:03:03.189Z,3.06
2022-12-01T10:05:51.299Z,2.90
2022-12-01T10:08:30.809Z,2.79
2022-12-01T10:11:07.075Z,3.19
2022-12-01T10:13:34.189Z,3.79
2022-12-01T10:16:26.599Z,3.68
2022-12-01T10:19:10.959Z,2.94
2022-12-01T10:21:47.425Z,2.79
2022-12-01T10:24:27.180Z,2.52
2022-12-01T10:27:05.581Z,2.47
2022-12-01T10:29:49.323Z,2.37
2022-12-01T10:32:19.196Z,2.33
2022-12-01T10:34:47.930Z,3.01
2022-12-01T10:37:21.181Z,3.57
2022-12-01T10:39:49.999Z,3.45
2022-12-01T10:42:26.298Z,3.22
2022-12-01T10:44:54.963Z,2.95
2022-12-01T10:47:23.726Z,2.72
2022-12-01T10:49:50.923Z,2.51
2022-12-01T10:52:36.781Z,2.26
2022-12-01T10:55:06.659Z,2.05
2022-12-01T10:57:34.079Z,2.62
2022-12-01T11:00:05.917Z,3.29
2022-12-01T11:02:33.339Z,3.19
2022-12-01T11:05:18.660Z,2.88
2022-12-01T11:07:46.640Z,2.67
2022-12-01T11:10:16.710Z,2.56
2022-12-01T11:12:45.966Z,2.52
2022-12-01T11:15:22.888Z,2.40
2022-12-01T11:17:51.807Z,2.30
2022-12-01T11:20:49.009Z,2.84
2022-12-01T11:23:20.701Z,3.57
2022-12-01T11:26:11.036Z,3.61
2022-12-01T11:28:41.821Z,3.45
2022-12-01T11:31:09.011Z,3.18
2022-12-01T11:33:53.237Z,2.62
2022-12-01T11:36:44.308Z,2.14
2022-12-01T11:39:23.996Z,1.70
2022-12-01T11:41:58.659Z,1.58
2022-12-01T11:44:50.197Z,2.13
2022-12-01T11:47:23.170Z,2.73
2022-12-01T11:50:05.269Z,2.54
2022-12-01T11:52:34.791Z,2.26
2022-12-01T11:55:11.180Z,2.00
2022-12-01T11:57:43.739Z,1.81
2022-12-01T12:00:15.094Z,1.77
2022-12-01T12:03:03.883Z,1.69
2022-12-01T12:06:18.195Z,2.20
2022-12-01T12:09:40.125Z,2.66
2022-12-01T12:12:10.394Z,2.22
2022-12-01T12:14:57.067Z,2.27
2022-12-01T12:17:33.432Z,2.06
2022-12-01T12:20:08.893Z,1.89
2022-12-01T12:22:55.760Z,1.76
2022-12-01T12:25:54.142Z,2.37
2022-12-01T12:28:44.980Z,2.88
2022-12-01T12:31:37.468Z,2.68
2022-12-01T12:34:26.508Z,2.27
2022-12-01T12:37:25.717Z,1.96
2022-12-01T12:40:05.320Z,1.45
2022-12-01T12:42:44.240Z,1.20
2022-12-01T12:45:16.704Z,1.87
2022-12-01T12:47:54.468Z,2.29
2022-12-01T12:50:28.699Z,2.31
2022-12-01T12:52:58.682Z,2.17
2022-12-01T12:55:40.356Z,2.01
2022-12-01T12:58:15.720Z,1.85
2022-12-01T13:00:48.667Z,1.71
2022-12-01T13:03:45.798Z,1.51
2022-12-01T13:06:39.193Z,2.05
2022-12-01T13:09:29.815Z,2.58
2022-12-01T13:12:03.704Z,2.57
2022-12-01T13:14:35.945Z,2.48
2022-12-01T13:17:23.421Z,2.25
2022-12-01T13:19:50.914Z,2.00
2022-12-01T13:22:18.976Z,1.69
2022-12-01T13:24:46.143Z,1.46
2022-12-01T13:27:23.997Z,1.99
2022-12-01T13:29:52.469Z,2.69
2022-12-01T13:32:29.648Z,2.61
2022-12-01T13:34:56.560Z,2.33
2022-12-01T13:37:37.021Z,2.01
2022-12-01T13:40:27.847Z,1.71
2022-12-01T18:06:13.054Z,-1.55
2022-12-01T18:08:40.255Z,-0.30
2022-12-01T18:11:10.112Z,1.09
2022-12-01T18:13:40.772Z,1.72
2022-12-01T18:16:09.192Z,1.83
2022-12-01T18:18:37.331Z,1.66
2022-12-01T18:21:06.657Z,1.37
2022-12-01T18:23:33.766Z,1.19
2022-12-01T18:26:05.429Z,0.98
2022-12-01T18:28:33.709Z,0.78
2022-12-01T18:31:08.371Z,1.30
2022-12-01T18:33:36.390Z,1.90
2022-12-01T18:36:04.144Z,2.00
2022-12-01T18:38:31.352Z,1.76
2022-12-01T18:40:59.128Z,1.44
2022-12-01T18:43:27.181Z,1.03
2022-12-01T18:45:54.121Z,0.83
2022-12-01T18:48:21.341Z,0.65
2022-12-01T18:50:48.720Z,1.05
2022-12-01T18:53:17.715Z,1.63
2022-12-01T18:55:44.724Z,1.71
2022-12-01T18:58:11.769Z,1.51
2022-12-01T19:00:38.979Z,1.22
2022-12-01T19:03:06.174Z,1.02
2022-12-01T19:05:36.469Z,0.82
2022-12-01T19:08:03.819Z,0.65
2022-12-01T19:10:31.078Z,0.42
2022-12-01T19:12:59.356Z,1.01
2022-12-01T19:15:27.046Z,1.74
2022-12-01T19:17:54.749Z,1.87
2022-12-01T19:20:21.709Z,1.72
2022-12-01T19:22:48.751Z,1.37
2022-12-01T19:25:16.711Z,1.04
2022-12-01T19:27:43.713Z,0.55
2022-12-01T19:30:11.621Z,0.25
2022-12-01T19:32:40.142Z,0.08
2022-12-01T19:35:07.466Z,0.75
2022-12-01T19:37:34.558Z,1.36
2022-12-01T19:40:01.856Z,1.40
2022-12-01T19:42:30.303Z,1.21
2022-12-01T19:44:57.625Z,1.00
2022-12-01T19:47:24.567Z,0.73
2022-12-01T19:49:51.590Z,0.52
2022-12-01T19:52:19.898Z,0.30
2022-12-01T19:54:46.853Z,0.19
2022-12-01T19:57:13.894Z,0.65
2022-12-01T19:59:40.821Z,1.27
2022-12-01T20:02:08.652Z,1.34
2022-12-01T20:04:35.761Z,1.12
2022-12-01T20:07:02.914Z,0.99
2022-12-01T20:09:30.861Z,0.72
2022-12-01T20:11:57.985Z,0.37
2022-12-01T20:14:25.329Z,0.25
2022-12-01T20:16:55.454Z,0.11
2022-12-01T20:19:22.509Z,0.76
2022-12-01T20:21:49.625Z,1.49
2022-12-01T20:24:18.665Z,1.51
2022-12-01T20:26:52.017Z,1.39
2022-12-01T20:29:24.732Z,1.10
2022-12-01T20:31:51.846Z,0.87
2022-12-01T20:34:21.525Z,0.73
2022-12-01T20:36:48.623Z,0.42
2022-12-01T20:39:16.003Z,0.24
2022-12-01T20:41:43.143Z,0.69
2022-12-01T20:44:11.149Z,1.22
2022-12-01T20:46:38.650Z,1.34
2022-12-01T20:49:05.822Z,1.11
2022-12-01T20:51:33.544Z,0.86
2022-12-01T20:54:26.684Z,0.66
2022-12-01T20:56:48.757Z,0.44
2022-12-01T20:59:15.727Z,0.26
2022-12-01T21:01:42.699Z,0.11
2022-12-01T21:04:09.720Z,0.61
2022-12-01T21:06:37.030Z,0.91
2022-12-01T21:09:04.234Z,0.81
2022-12-01T21:11:53.730Z,0.72
2022-12-01T21:14:27.005Z,0.54
2022-12-01T21:16:56.329Z,0.25
2022-12-01T21:19:28.156Z,0.01
2022-12-01T21:21:55.257Z,-0.14
2022-12-01T21:24:33.187Z,0.33
2022-12-01T21:27:03.129Z,0.90
2022-12-01T21:29:40.977Z,1.05
2022-12-01T21:32:19.473Z,0.77
2022-12-01T21:34:47.508Z,0.45
2022-12-01T21:37:25.023Z,0.07
2022-12-01T21:39:53.011Z,0.06
2022-12-01T21:42:21.810Z,-0.17
2022-12-01T21:44:49.207Z,0.31
2022-12-01T21:47:25.931Z,0.76
2022-12-01T21:49:54.353Z,0.59
2022-12-01T21:52:21.466Z,0.55
2022-12-01T21:54:48.785Z,0.36
2022-12-01T21:57:29.702Z,0.17
2022-12-01T22:00:20.260Z,0.01
2022-12-01T22:02:52.075Z,-0.12
2022-12-01T22:05:38.076Z,0.57
2022-12-01T22:08:12.599Z,1.32
2022-12-01T22:10:55.368Z,1.37
2022-12-01T22:13:33.542Z,1.21
2022-12-01T22:16:00.512Z,0.90
2022-12-01T22:18:36.656Z,0.55
2022-12-01T22:21:20.391Z,0.22
2022-12-01T22:23:47.544Z,0.01
2022-12-01T22:26:16.977Z,0.63
2022-12-01T22:28:43.913Z,1.27
2022-12-01T22:31:19.655Z,1.19
2022-12-01T22:33:46.772Z,1.05
2022-12-01T22:36:24.590Z,0.80
2022-12-01T22:38:51.618Z,0.53
2022-12-01T22:41:22.044Z,0.37
2022-12-01T22:43:56.591Z,0.10
2022-12-01T22:46:27.543Z,-0.09
2022-12-01T22:49:06.907Z,0.49
2022-12-01T22:51:43.677Z,1.23
2022-12-01T22:54:16.779Z,1.36
2022-12-01T22:56:45.065Z,1.20
2022-12-01T22:59:20.312Z,0.97
2022-12-01T23:01:58.382Z,0.73
2022-12-01T23:04:27.473Z,0.53
2022-12-01T23:06:56.498Z,0.35
2022-12-01T23:09:26.567Z,0.24
2022-12-01T23:12:00.256Z,0.79
2022-12-01T23:14:27.702Z,1.54
2022-12-01T23:17:06.376Z,1.64
2022-12-01T23:19:34.537Z,1.42
2022-12-01T23:22:01.508Z,1.18
2022-12-01T23:24:33.761Z,0.95
2022-12-01T23:27:01.252Z,0.72
2022-12-01T23:29:29.817Z,0.57
2022-12-01T23:31:56.794Z,0.40
2022-12-01T23:34:23.821Z,0.81
2022-12-01T23:36:51.288Z,1.26
2022-12-01T23:39:18.651Z,1.39
2022-12-01T23:41:47.664Z,1.32
2022-12-01T23:44:21.808Z,1.10
2022-12-01T23:46:51.368Z,0.84
2022-12-01T23:49:23.272Z,0.62
2022-12-01T23:51:51.790Z,0.47
2022-12-01T23:54:20.618Z,0.94
2022-12-01T23:56:58.885Z,1.55
2022-12-01T23:59:25.919Z,1.67
